createdAt,value
2022-10-23T00:01:44.784Z,12.37
2022-10-23T00:04:20.276Z,12.38
2022-10-23T00:06:49.496Z,12.36
2022-10-23T00:09:20.906Z,12.36
2022-10-23T00:11:50.748Z,12.38
2022-10-23T00:14:23.235Z,12.37
2022-10-23T00:16:51.208Z,12.38
2022-10-23T00:19:18.970Z,12.39
2022-10-23T00:21:47.202Z,12.39
2022-10-23T00:24:17.183Z,12.38
2022-10-23T00:26:44.654Z,12.35
2022-10-23T00:29:14.631Z,12.32
2022-10-23T00:31:42.164Z,12.34
2022-10-23T00:34:10.594Z,12.33
2022-10-23T00:36:39.573Z,12.31
2022-10-23T00:39:07.753Z,12.30
2022-10-23T00:41:36.307Z,12.31
2022-10-23T00:44:12.716Z,12.29
2022-10-23T00:46:40.669Z,12.28
2022-10-23T00:49:09.650Z,12.26
2022-10-23T00:51:47.724Z,12.25
2022-10-23T00:54:23.921Z,12.23
2022-10-23T00:56:49.199Z,12.22
2022-10-23T00:59:17.230Z,12.21
2022-10-23T01:01:45.081Z,12.21
2022-10-23T01:04:12.915Z,12.21
2022-10-23T01:06:59.685Z,12.21
2022-10-23T01:10:04.656Z,12.21
2022-10-23T01:12:47.790Z,12.20
2022-10-23T01:15:43.291Z,12.20
2022-10-23T01:18:31.319Z,12.19
2022-10-23T01:21:19.572Z,12.17
2022-10-23T01:24:26.065Z,12.16
2022-10-23T01:27:27.513Z,12.15
2022-10-23T01:30:11.813Z,12.14
2022-10-23T01:33:10.129Z,12.11
2022-10-23T01:35:50.363Z,12.11
2022-10-23T01:38:28.885Z,12.12
2022-10-23T01:41:03.091Z,12.11
2022-10-23T01:43:36.250Z,12.10
2022-10-23T01:46:08.681Z,12.10
2022-10-23T01:48:40.398Z,12.11
2022-10-23T01:51:12.255Z,12.11
2022-10-23T01:53:43.023Z,12.11
2022-10-23T01:56:17.585Z,12.11
2022-10-23T01:58:48.538Z,12.11
2022-10-23T02:01:20.436Z,12.13
2022-10-23T02:03:50.329Z,12.14
2022-10-23T02:06:18.692Z,12.13
2022-10-23T02:08:46.775Z,12.15
2022-10-23T02:11:19.817Z,12.16
2022-10-23T02:14:07.878Z,12.17
2022-10-23T02:16:42.955Z,12.18
2022-10-23T02:19:30.889Z,12.19
2022-10-23T02:22:22.875Z,12.20
2022-10-23T02:24:58.833Z,12.18
2022-10-23T02:27:31.982Z,12.15
2022-10-23T02:30:05.074Z,12.13
2022-10-23T02:32:33.963Z,12.12
2022-10-23T02:35:02.328Z,12.12
2022-10-23T02:37:30.105Z,12.13
2022-10-23T02:39:58.037Z,12.14
2022-10-23T02:42:45.920Z,12.15
2022-10-23T02:45:36.299Z,12.15
2022-10-23T02:48:23.458Z,12.13
2022-10-23T02:51:11.298Z,12.11
2022-10-23T02:53:58.666Z,12.08
2022-10-23T02:56:41.848Z,12.05
2022-10-23T02:59:26.754Z,12.02
2022-10-23T03:02:03.386Z,11.99
2022-10-23T03:04:34.476Z,11.98
2022-10-23T03:07:03.218Z,11.97
2022-10-23T03:09:31.391Z,11.95
2022-10-23T03:11:59.022Z,11.89
2022-10-23T03:14:26.721Z,11.84
2022-10-23T03:16:54.382Z,11.81
2022-10-23T03:19:22.244Z,11.78
2022-10-23T03:21:49.760Z,11.74
2022-10-23T03:24:17.326Z,11.69
2022-10-23T03:26:45.211Z,11.66
2022-10-23T03:29:13.026Z,11.62
2022-10-23T03:31:42.569Z,11.58
2022-10-23T03:34:11.099Z,11.55
2022-10-23T03:36:40.720Z,11.51
2022-10-23T03:39:09.533Z,11.48
2022-10-23T03:41:37.470Z,11.44
2022-10-23T03:46:32.480Z,11.41
2022-10-23T03:48:59.965Z,11.41
2022-10-23T03:51:27.834Z,11.40
2022-10-23T03:53:55.678Z,11.41
2022-10-23T03:56:23.800Z,11.38
2022-10-23T03:58:51.343Z,11.37
2022-10-23T04:01:18.951Z,11.34
2022-10-23T04:03:46.759Z,11.32
2022-10-23T04:06:15.922Z,11.29
2022-10-23T04:08:44.729Z,11.26
2022-10-23T04:11:14.296Z,11.21
2022-10-23T04:13:43.971Z,11.20
2022-10-23T04:16:11.657Z,11.17
2022-10-23T04:18:41.260Z,11.15
2022-10-23T04:21:10.617Z,11.12
2022-10-23T04:23:38.884Z,11.11
2022-10-23T04:26:08.512Z,11.06
2022-10-23T04:28:36.581Z,11.02
2022-10-23T04:31:04.320Z,11.00
2022-10-23T04:33:32.171Z,10.98
2022-10-23T04:35:59.993Z,10.95
2022-10-23T04:38:27.671Z,10.90
2022-10-23T04:40:55.310Z,10.87
2022-10-23T04:43:23.215Z,10.86
2022-10-23T04:45:50.647Z,10.85
2022-10-23T04:48:25.482Z,10.83
2022-10-23T04:51:10.128Z,10.82
2022-10-23T04:53:51.055Z,10.79
2022-10-23T04:56:20.719Z,10.78
2022-10-23T04:58:50.086Z,10.79
2022-10-23T05:01:18.084Z,10.79
2022-10-23T05:03:45.739Z,10.80
2022-10-23T05:06:13.793Z,10.80
2022-10-23T05:08:48.994Z,10.80
2022-10-23T05:11:22.100Z,10.79
2022-10-23T05:13:52.237Z,10.79
2022-10-23T05:16:41.012Z,10.78
2022-10-23T05:19:13.282Z,10.78
2022-10-23T05:21:41.540Z,10.75
2022-10-23T05:24:12.765Z,10.78
2022-10-23T05:26:40.418Z,10.77
2022-10-23T05:29:08.794Z,10.80
2022-10-23T05:31:36.568Z,10.81
2022-10-23T05:34:09.849Z,10.84
2022-10-23T05:36:38.358Z,10.86
2022-10-23T05:39:06.739Z,10.86
2022-10-23T05:41:34.684Z,10.87
2022-10-23T05:44:02.988Z,10.88
2022-10-23T05:46:48.600Z,10.92
2022-10-23T05:49:20.653Z,10.94
2022-10-23T05:51:53.400Z,10.95
2022-10-23T05:54:20.907Z,10.97
2022-10-23T05:57:04.290Z,10.98
2022-10-23T05:59:33.933Z,10.97
2022-10-23T06:02:03.469Z,10.97
2022-10-23T06:04:36.028Z,10.98
2022-10-23T06:07:12.388Z,10.98
2022-10-23T06:09:40.291Z,10.97
2022-10-23T06:12:08.007Z,11.01
2022-10-23T06:14:35.789Z,11.04
2022-10-23T06:17:03.875Z,11.09
2022-10-23T06:19:36.061Z,11.13
2022-10-23T06:22:05.314Z,11.18
2022-10-23T06:24:34.833Z,11.22
2022-10-23T06:27:04.784Z,11.25
2022-10-23T06:29:37.040Z,11.29
2022-10-23T06:32:05.279Z,11.30
2022-10-23T06:34:33.209Z,11.30
2022-10-23T06:37:01.031Z,11.31
2022-10-23T06:39:42.144Z,11.32
2022-10-23T06:42:12.288Z,11.31
2022-10-23T06:44:54.440Z,11.31
2022-10-23T06:47:23.793Z,11.30
2022-10-23T06:50:11.767Z,11.32
2022-10-23T06:52:47.460Z,11.34
2022-10-23T06:55:12.308Z,11.34
2022-10-23T06:57:40.238Z,11.34
2022-10-23T07:00:09.626Z,11.35
2022-10-23T07:02:39.839Z,11.35
2022-10-23T07:05:11.269Z,11.35
2022-10-23T07:07:37.838Z,11.37
2022-10-23T07:10:06.742Z,11.40
2022-10-23T07:12:36.242Z,11.43
2022-10-23T07:15:08.944Z,11.44
2022-10-23T07:17:36.981Z,11.45
2022-10-23T07:20:07.688Z,11.46
2022-10-23T07:22:36.727Z,11.47
2022-10-23T07:25:09.437Z,11.47
2022-10-23T07:27:39.663Z,11.44
2022-10-23T07:30:10.203Z,11.43
2022-10-23T07:32:48.361Z,11.44
2022-10-23T07:35:37.054Z,11.46
2022-10-23T07:38:08.250Z,11.44
2022-10-23T07:40:37.778Z,11.42
2022-10-23T07:43:06.019Z,11.40
2022-10-23T07:45:33.453Z,11.43
2022-10-23T07:48:03.063Z,11.47
2022-10-23T07:50:33.042Z,11.52
2022-10-23T07:53:00.690Z,11.55
2022-10-23T07:55:30.790Z,11.57
2022-10-23T07:58:01.024Z,11.61
2022-10-23T08:00:34.096Z,11.61
2022-10-23T08:03:06.963Z,11.62
2022-10-23T08:05:35.067Z,11.62
2022-10-23T08:08:03.328Z,11.61
2022-10-23T08:10:31.836Z,11.59
2022-10-23T08:13:00.593Z,11.56
2022-10-23T08:15:30.287Z,11.56
2022-10-23T08:17:59.671Z,11.54
2022-10-23T08:20:29.166Z,11.56
2022-10-23T08:22:57.668Z,11.53
2022-10-23T08:25:26.108Z,11.51
2022-10-23T08:27:54.211Z,11.51
2022-10-23T08:30:23.546Z,11.49
2022-10-23T08:32:50.913Z,11.51
2022-10-23T08:35:20.584Z,11.51
2022-10-23T08:37:50.932Z,11.52
2022-10-23T08:40:22.809Z,11.56
2022-10-23T08:43:02.902Z,11.55
2022-10-23T08:45:41.860Z,11.58
2022-10-23T08:48:50.887Z,11.63
2022-10-23T08:51:45.023Z,11.64
2022-10-23T08:54:18.628Z,11.68
2022-10-23T08:57:00.540Z,11.70
2022-10-23T08:59:38.063Z,11.74
2022-10-23T09:02:25.378Z,11.76
2022-10-23T09:04:55.712Z,11.79
2022-10-23T09:08:01.766Z,11.86
2022-10-23T09:10:54.629Z,11.95
2022-10-23T09:13:54.887Z,12.03
2022-10-23T09:16:44.567Z,12.08
2022-10-23T09:19:19.282Z,12.14
2022-10-23T09:21:50.288Z,12.22
2022-10-23T09:24:22.829Z,12.23
2022-10-23T09:26:53.372Z,12.21
2022-10-23T09:29:28.419Z,12.24
2022-10-23T09:31:59.449Z,12.24
2022-10-23T09:34:29.853Z,12.27
2022-10-23T09:37:04.345Z,12.29
2022-10-23T09:39:35.067Z,12.32
2022-10-23T09:42:19.785Z,12.34
2022-10-23T09:44:50.496Z,12.34
2022-10-23T09:47:22.100Z,12.37
2022-10-23T09:49:53.303Z,12.38
2022-10-23T09:52:40.534Z,12.39
2022-10-23T09:55:25.041Z,12.40
2022-10-23T09:57:55.049Z,12.38
2022-10-23T10:00:26.519Z,12.37
2022-10-23T10:03:01.430Z,12.35
2022-10-23T10:05:44.331Z,12.36
2022-10-23T10:08:31.534Z,12.39
2022-10-23T10:11:17.001Z,12.44
2022-10-23T10:14:25.176Z,12.48
2022-10-23T10:17:32.026Z,12.54
2022-10-23T10:20:19.808Z,12.62
2022-10-23T10:22:55.762Z,12.72
2022-10-23T10:25:51.304Z,12.79
2022-10-23T10:29:00.746Z,12.82
2022-10-23T10:32:02.297Z,12.81
2022-10-23T10:34:44.082Z,12.85
2022-10-23T10:37:47.344Z,12.94
2022-10-23T10:40:37.728Z,12.94
2022-10-23T10:43:32.092Z,12.94
2022-10-23T10:46:10.975Z,12.90
2022-10-23T10:48:56.438Z,12.88
2022-10-23T10:51:56.526Z,12.85
2022-10-23T10:54:46.191Z,12.82
2022-10-23T10:57:22.131Z,12.84
2022-10-23T10:59:53.209Z,12.84
2022-10-23T11:02:40.892Z,12.86
2022-10-23T11:05:44.212Z,12.90
2022-10-23T11:08:49.811Z,12.94
2022-10-23T11:11:18.193Z,12.93
2022-10-23T11:13:46.193Z,12.92
2022-10-23T11:16:31.643Z,12.92
2022-10-23T11:19:22.177Z,12.92
2022-10-23T11:22:04.153Z,12.88
2022-10-23T11:24:55.841Z,12.88
2022-10-23T11:27:37.814Z,12.87
2022-10-23T11:30:42.741Z,12.88
2022-10-23T11:33:51.886Z,12.89
2022-10-23T11:36:40.449Z,12.89
2022-10-23T11:39:24.888Z,12.86
2022-10-23T11:42:06.211Z,12.85
2022-10-23T11:44:49.068Z,12.89
2022-10-23T11:47:39.280Z,12.92
2022-10-23T11:50:11.197Z,12.98
2022-10-23T11:53:14.830Z,13.02
2022-10-23T11:55:31.463Z,13.05
2022-10-23T11:58:28.337Z,13.08
2022-10-23T12:01:07.539Z,13.10
2022-10-23T12:03:59.710Z,13.13
2022-10-23T12:06:45.548Z,13.14
2022-10-23T12:09:44.045Z,13.17
2022-10-23T12:12:19.827Z,13.18
2022-10-23T12:14:50.269Z,13.22
2022-10-23T12:17:29.584Z,13.22
2022-10-23T12:20:14.875Z,13.27
2022-10-23T12:22:59.931Z,13.32
2022-10-23T12:26:06.333Z,13.37
2022-10-23T12:29:00.839Z,13.42
2022-10-23T12:32:13.465Z,13.46
2022-10-23T12:35:08.397Z,13.49
2022-10-23T12:38:08.659Z,13.52
2022-10-23T12:40:36.673Z,13.53
2022-10-23T12:43:25.099Z,13.52
2022-10-23T12:45:56.863Z,13.51
2022-10-23T12:48:28.586Z,13.49
2022-10-23T12:50:59.682Z,13.49
2022-10-23T12:53:27.817Z,13.48
2022-10-23T12:56:05.703Z,13.49
2022-10-23T12:58:35.110Z,13.50
2022-10-23T13:01:07.381Z,13.49
2022-10-23T13:03:36.132Z,13.50
2022-10-23T13:06:06.289Z,13.52
2022-10-23T13:08:44.606Z,13.54
2022-10-23T13:11:18.226Z,13.55
2022-10-23T13:13:46.652Z,13.56
2022-10-23T13:16:26.569Z,13.56
2022-10-23T13:18:54.171Z,13.59
2022-10-23T13:21:25.615Z,13.62
2022-10-23T13:23:54.703Z,13.64
2022-10-23T13:26:42.426Z,13.69
2022-10-23T13:31:52.539Z,13.74
2022-10-23T13:34:29.397Z,13.75
2022-10-23T13:37:23.194Z,13.78
2022-10-23T13:40:10.608Z,13.80
2022-10-23T13:42:38.600Z,13.80
2022-10-23T13:45:11.818Z,13.79
2022-10-23T13:47:39.891Z,13.78
2022-10-23T13:50:10.228Z,13.76
2022-10-23T13:52:39.629Z,13.74
2022-10-23T13:55:25.348Z,13.72
2022-10-23T13:57:53.360Z,13.73
2022-10-23T14:00:21.830Z,13.75
2022-10-23T14:02:49.268Z,13.76
2022-10-23T14:05:17.068Z,13.77
2022-10-23T14:07:44.977Z,13.78
2022-10-23T14:10:13.003Z,13.78
2022-10-23T14:12:42.639Z,13.76
2022-10-23T14:15:11.623Z,13.73
2022-10-23T14:17:39.439Z,13.71
2022-10-23T14:20:08.575Z,13.70
2022-10-23T14:22:36.696Z,13.68
2022-10-23T14:25:24.195Z,13.68
2022-10-23T14:27:51.814Z,13.66
2022-10-23T14:30:19.675Z,13.67
2022-10-23T14:32:47.775Z,13.70
2022-10-23T14:35:15.664Z,13.69
2022-10-23T14:37:43.610Z,13.67
2022-10-23T14:40:11.457Z,13.67
2022-10-23T14:42:39.224Z,13.65
2022-10-23T14:45:07.971Z,13.63
2022-10-23T14:47:36.453Z,13.59
2022-10-23T14:50:04.898Z,13.56
2022-10-23T14:52:32.806Z,13.52
2022-10-23T14:55:01.126Z,13.49
2022-10-23T14:57:28.662Z,13.46
2022-10-23T14:59:56.008Z,13.47
2022-10-23T15:02:23.756Z,13.45
2022-10-23T15:04:51.101Z,13.42
2022-10-23T15:07:18.569Z,13.38
2022-10-23T15:09:46.271Z,13.34
2022-10-23T15:12:13.757Z,13.29
2022-10-23T15:14:41.301Z,13.20
2022-10-23T15:17:15.379Z,13.11
2022-10-23T15:19:39.758Z,13.03
2022-10-23T15:22:07.228Z,12.94
2022-10-23T15:24:35.579Z,12.84
2022-10-23T15:27:04.888Z,12.75
2022-10-23T15:29:32.287Z,12.63
2022-10-23T15:32:01.467Z,12.54
2022-10-23T15:34:29.525Z,12.44
2022-10-23T15:36:58.218Z,12.34
2022-10-23T15:39:34.965Z,12.26
2022-10-23T15:42:05.700Z,12.20
2022-10-23T15:44:34.112Z,12.10
2022-10-23T15:47:01.837Z,12.02
2022-10-23T15:49:30.052Z,11.95
2022-10-23T15:51:58.064Z,11.86
2022-10-23T15:54:28.179Z,11.79
2022-10-23T15:56:55.090Z,11.69
2022-10-23T15:59:24.664Z,11.61
2022-10-23T16:01:52.886Z,11.51
2022-10-23T16:04:20.837Z,11.44
2022-10-23T16:06:48.763Z,11.35
2022-10-23T16:09:16.232Z,11.26
2022-10-23T16:11:44.579Z,11.18
2022-10-23T16:14:14.772Z,11.11
2022-10-23T16:16:42.765Z,11.04
2022-10-23T16:19:11.565Z,10.98
2022-10-23T16:21:41.169Z,10.92
2022-10-23T16:24:09.804Z,10.87
2022-10-23T16:26:39.608Z,10.82
2022-10-23T16:29:08.765Z,10.77
2022-10-23T16:31:38.854Z,10.70
2022-10-23T16:34:07.247Z,10.61
2022-10-23T16:36:37.967Z,10.55
2022-10-23T16:39:20.463Z,10.48
2022-10-23T16:42:06.618Z,10.40
2022-10-23T16:44:41.789Z,10.33
2022-10-23T16:47:10.069Z,10.30
2022-10-23T16:49:37.458Z,10.23
2022-10-23T16:52:05.006Z,10.13
2022-10-23T16:54:33.300Z,10.07
2022-10-23T16:57:00.661Z,10.03
2022-10-23T16:59:28.443Z,9.99
2022-10-23T17:01:56.816Z,9.98
2022-10-23T17:04:24.999Z,9.92
2022-10-23T17:06:55.265Z,9.88
2022-10-23T17:09:23.422Z,9.81
2022-10-23T17:11:52.888Z,9.78
2022-10-23T17:14:20.737Z,9.73
2022-10-23T17:16:52.264Z,9.68
2022-10-23T17:19:43.717Z,9.65
2022-10-23T17:21:55.006Z,9.61
2022-10-23T17:24:23.592Z,9.56
2022-10-23T17:26:56.945Z,9.52
2022-10-23T17:29:24.542Z,9.48
2022-10-23T17:31:52.245Z,9.48
2022-10-23T17:34:22.753Z,9.45
2022-10-23T17:36:53.921Z,9.41
2022-10-23T17:39:26.030Z,9.38
2022-10-23T17:41:56.450Z,9.34
2022-10-23T17:44:24.556Z,9.26
2022-10-23T17:46:54.360Z,9.22
2022-10-23T17:49:23.886Z,9.19
2022-10-23T17:51:57.257Z,9.17
2022-10-23T17:54:26.590Z,9.13
2022-10-23T17:56:56.397Z,9.09
2022-10-23T17:59:24.402Z,9.04
2022-10-23T18:01:53.012Z,8.98
2022-10-23T18:04:23.127Z,8.94
2022-10-23T18:06:53.230Z,8.90
2022-10-23T18:09:22.307Z,8.87
2022-10-23T18:11:51.207Z,8.83
2022-10-23T18:14:21.659Z,8.80
2022-10-23T18:16:50.477Z,8.76
2022-10-23T18:19:19.316Z,8.74
2022-10-23T18:21:49.086Z,8.70
2022-10-23T18:24:20.115Z,8.64
2022-10-23T18:26:48.191Z,8.58
2022-10-23T18:29:16.887Z,8.56
2022-10-23T18:31:47.678Z,8.53
2022-10-23T18:34:23.327Z,8.49
2022-10-23T18:36:53.251Z,8.44
2022-10-23T18:39:24.740Z,8.38
2022-10-23T18:41:56.806Z,8.33
2022-10-23T18:44:28.088Z,8.29
2022-10-23T18:46:58.753Z,8.26
2022-10-23T18:49:27.446Z,8.22
2022-10-23T18:51:55.073Z,8.18
2022-10-23T18:54:22.685Z,8.12
2022-10-23T18:56:50.728Z,8.08
2022-10-23T18:59:22.790Z,8.06
2022-10-23T19:01:52.194Z,8.03
2022-10-23T19:04:22.590Z,8.00
2022-10-23T19:06:52.066Z,7.97
2022-10-23T19:09:20.473Z,7.94
2022-10-23T19:11:48.400Z,7.91
2022-10-23T19:14:18.064Z,7.91
2022-10-23T19:17:02.352Z,7.88
2022-10-23T19:19:47.068Z,7.83
2022-10-23T19:22:18.083Z,7.76
2022-10-23T19:24:57.532Z,7.70
2022-10-23T19:27:26.710Z,7.67
2022-10-23T19:29:56.644Z,7.66
2022-10-23T19:32:26.572Z,7.64
2022-10-23T19:34:54.500Z,7.62
2022-10-23T19:37:24.379Z,7.63
2022-10-23T19:39:54.433Z,7.62
2022-10-23T19:42:22.422Z,7.60
2022-10-23T19:44:50.624Z,7.58
2022-10-23T19:47:18.557Z,7.56
2022-10-23T19:49:46.170Z,7.55
2022-10-23T19:52:14.241Z,7.54
2022-10-23T19:54:42.382Z,7.54
2022-10-23T19:57:11.204Z,7.54
2022-10-23T19:59:39.074Z,7.53
2022-10-23T20:02:07.940Z,7.52
2022-10-23T20:04:36.097Z,7.51
2022-10-23T20:07:04.241Z,7.50
2022-10-23T20:09:32.249Z,7.46
2022-10-23T20:12:00.051Z,7.44
2022-10-23T20:14:28.128Z,7.40
2022-10-23T20:16:56.451Z,7.39
2022-10-23T20:19:24.403Z,7.38
2022-10-23T20:21:52.387Z,7.35
2022-10-23T20:24:21.313Z,7.31
2022-10-23T20:26:53.354Z,7.26
2022-10-23T20:29:22.049Z,7.20
2022-10-23T20:31:50.185Z,7.13
2022-10-23T20:34:19.904Z,7.08
2022-10-23T20:36:49.489Z,7.04
2022-10-23T20:39:23.552Z,6.99
2022-10-23T20:41:51.637Z,6.95
2022-10-23T20:44:19.751Z,6.90
2022-10-23T20:46:48.447Z,6.87
2022-10-23T20:49:16.641Z,6.81
2022-10-23T20:51:44.743Z,6.79
2022-10-23T20:54:12.619Z,6.75
2022-10-23T20:56:40.763Z,6.73
2022-10-23T20:59:16.803Z,6.67
2022-10-23T21:01:50.876Z,6.61
2022-10-23T21:04:23.779Z,6.55
2022-10-23T21:07:10.488Z,6.48
2022-10-23T21:09:24.336Z,6.42
2022-10-23T21:11:52.272Z,6.40
2022-10-23T21:14:19.963Z,6.39
2022-10-23T21:16:50.387Z,6.36
2022-10-23T21:19:18.863Z,6.33
2022-10-23T21:21:46.645Z,6.32
2022-10-23T21:24:17.008Z,6.30
2022-10-23T21:26:45.641Z,6.29
2022-10-23T21:29:19.132Z,6.29
2022-10-23T21:31:48.199Z,6.27
2022-10-23T21:34:19.807Z,6.24
2022-10-23T21:37:11.407Z,6.23
2022-10-23T21:39:17.371Z,6.20
2022-10-23T21:41:45.203Z,6.18
2022-10-23T21:44:15.061Z,6.20
2022-10-23T21:46:43.698Z,6.19
2022-10-23T21:49:11.754Z,6.20
2022-10-23T21:51:41.545Z,6.22
2022-10-23T21:54:12.790Z,6.22
2022-10-23T21:56:47.709Z,6.22
2022-10-23T21:59:19.498Z,6.22
2022-10-23T22:01:48.699Z,6.23
2022-10-23T22:04:18.528Z,6.23
2022-10-23T22:06:49.130Z,6.22
2022-10-23T22:09:19.834Z,6.21
2022-10-23T22:11:53.367Z,6.18
2022-10-23T22:14:22.767Z,6.13
2022-10-23T22:16:51.754Z,6.14
2022-10-23T22:19:21.854Z,6.12
2022-10-23T22:21:51.096Z,6.08
2022-10-23T22:24:19.109Z,6.06
2022-10-23T22:26:51.221Z,6.06
2022-10-23T22:29:23.546Z,6.04
2022-10-23T22:31:51.552Z,6.03
2022-10-23T22:36:54.318Z,6.00
2022-10-23T22:39:22.301Z,5.99
2022-10-23T22:41:50.312Z,5.96
2022-10-23T22:44:18.110Z,5.93
2022-10-23T22:46:46.049Z,5.92
2022-10-23T22:49:13.483Z,5.90
2022-10-23T22:51:41.033Z,5.89
2022-10-23T22:54:09.455Z,5.87
2022-10-23T22:56:36.925Z,5.86
2022-10-23T22:59:05.124Z,5.83
2022-10-23T23:01:37.619Z,5.81
2022-10-23T23:04:19.732Z,5.80
2022-10-23T23:06:35.530Z,5.80
2022-10-23T23:09:03.624Z,5.82
2022-10-23T23:11:37.090Z,5.81
2022-10-23T23:14:02.929Z,5.80
2022-10-23T23:16:31.877Z,5.79
2022-10-23T23:19:01.685Z,5.74
2022-10-23T23:21:30.581Z,5.68
2022-10-23T23:23:58.906Z,5.61
2022-10-23T23:26:26.821Z,5.56
2022-10-23T23:28:54.725Z,5.48
2022-10-23T23:31:25.865Z,5.42
2022-10-23T23:33:54.339Z,5.36
2022-10-23T23:36:27.792Z,5.31
2022-10-23T23:38:57.392Z,5.27
2022-10-23T23:41:26.189Z,5.19
2022-10-23T23:43:56.376Z,5.15
2022-10-23T23:46:25.394Z,5.11
2022-10-23T23:48:53.267Z,5.04
2022-10-23T23:51:23.878Z,5.00
2022-10-23T23:53:52.160Z,4.94
2022-10-23T23:56:20.610Z,4.89
2022-10-23T23:58:48.573Z,4.85
